Hlavní strana
METAR-TAF:

METAR-TAF

Letiště :

Kelibia, Tunisko

zeměpisná šířka: 36-51N, zeměpisná délka: 011-05E, výška: 29 m

Aktuální stav počasí

Zpráva byla vytvořena před 19 minutami, v 10:00 UTC
vítr z různých směrů 4 kt
Teplota 19°C
Vlhkost vzduchu 68%
Tlak 1023 hPa
Viditelnost 10 km a více
Skoro jasno ve výšce 2000 ft

METAR: DTTL 101000Z VRB04KT 9999 FEW020 19/13 Q1023

Čas: 11:19 (10:19 UTC)


TAF: chybějící

Stav a předpovědi počasí z více než 4 000 letišť (zprávy METAR a TAF).

Červené a žluté tečky na mapě představují dostupné meteorologické stanice.

Když kurzor umístíte na tečku, zobrazí se název stanice.

Pak kliknutím zobrazíte stav a předpověď počasí.

Chcete-li změnit mapu, kliknutím na zelené tlačítko se znaménkem +mapu přiblížíte, kliknutím na zelené tlačítko se znaménkem – mapu oddálíte a kliknutím na zelené šipky přejdete na sousední mapy.


METAR-TAF: